Time;durP1;ratioP1;P1;durP2;ratioP2;P2;SDS_P1;SDS_P2;PMS_P1;PMS_P2;Temp;Humidity;BMP_temperature;BMP_pressure;BME280_temperature;BME280_humidity;BME280_pressure;Samples;Min_cycle;Max_cycle;Signal;HPM_P1;HPM_P2
2023/04/12 00:01:15;;;;;;;15.52;9.93;;;;;;;;;;5067986;28;20438;-81
2023/04/12 00:03:42;;;;;;;17.42;10.13;;;;;;;;;;5070780;28;20417;-81
2023/04/12 00:06:09;;;;;;;16.67;9.30;;;;;;;;;;5068088;28;21823;-81
2023/04/12 00:08:35;;;;;;;16.67;9.40;;;;;;;;;;5067552;28;20528;-81
2023/04/12 00:11:03;;;;;;;16.20;9.52;;;;;;;;;;5068602;28;20423;-81
2023/04/12 00:13:31;;;;;;;22.17;8.57;;;;;;;;;;5067084;28;20490;-81
2023/04/12 00:15:57;;;;;;;13.32;7.30;;;;;;;;;;5064892;28;20424;-79
2023/04/12 00:18:24;;;;;;;12.63;7.45;;;;;;;;;;5068281;28;20432;-81
2023/04/12 00:20:51;;;;;;;12.53;7.27;;;;;;;;;;5071898;28;20442;-81
2023/04/12 00:23:19;;;;;;;12.40;8.13;;;;;;;;;;5072938;28;20507;-81
2023/04/12 00:25:45;;;;;;;19.77;7.88;;;;;;;;;;5072319;28;20905;-81
2023/04/12 00:28:14;;;;;;;16.55;8.40;;;;;;;;;;5068213;28;20422;-81
2023/04/12 00:30:40;;;;;;;16.73;8.63;;;;;;;;;;5069887;28;20477;-81
2023/04/12 00:33:07;;;;;;;17.07;8.10;;;;;;;;;;5071724;28;20414;-81
2023/04/12 00:35:33;;;;;;;15.23;7.45;;;;;;;;;;5074138;28;20420;-81
2023/04/12 00:38:01;;;;;;;15.98;6.97;;;;;;;;;;5073226;28;20415;-81
2023/04/12 00:40:28;;;;;;;11.25;6.18;;;;;;;;;;5072066;28;20419;-81
2023/04/12 00:42:54;;;;;;;12.07;6.97;;;;;;;;;;5069934;28;20413;-81
2023/04/12 00:45:22;;;;;;;11.65;6.32;;;;;;;;;;5071277;28;20430;-81
2023/04/12 00:47:48;;;;;;;9.18;6.00;;;;;;;;;;5070249;28;20919;-82
2023/04/12 00:50:15;;;;;;;8.77;5.70;;;;;;;;;;5066842;28;20924;-81
2023/04/12 00:52:42;;;;;;;13.55;7.32;;;;;;;;;;5067291;28;20520;-81
2023/04/12 00:55:10;;;;;;;16.10;8.07;;;;;;;;;;5068010;28;20434;-81
2023/04/12 00:57:38;;;;;;;14.40;7.77;;;;;;;;;;5064070;28;20510;-80
2023/04/12 01:00:06;;;;;;;11.25;6.70;;;;;;;;;;5067647;28;20427;-80
2023/04/12 01:02:37;;;;;;;12.65;5.40;;;;;;;;;;5066965;28;20434;-80
2023/04/12 01:05:05;;;;;;;9.57;4.70;;;;;;;;;;5072551;28;20923;-80
2023/04/12 01:07:36;;;;;;;8.00;4.28;;;;;;;;;;5067596;28;20423;-81
2023/04/12 01:10:07;;;;;;;10.45;4.20;;;;;;;;;;5066332;28;20425;-80
2023/04/12 01:12:41;;;;;;;12.83;3.90;;;;;;;;;;5068117;28;20434;-81
2023/04/12 01:15:08;;;;;;;10.50;4.00;;;;;;;;;;5072034;28;20431;-81
2023/04/12 01:17:39;;;;;;;10.50;4.07;;;;;;;;;;5069170;28;20427;-81
2023/04/12 01:20:12;;;;;;;6.90;4.10;;;;;;;;;;5063240;28;20482;-80
2023/04/12 01:22:45;;;;;;;8.20;3.90;;;;;;;;;;5070225;28;20420;-81
2023/04/12 01:25:22;;;;;;;8.32;4.35;;;;;;;;;;5070209;28;20428;-81
2023/04/12 01:27:53;;;;;;;8.07;4.43;;;;;;;;;;5065730;28;20928;-80
2023/04/12 01:30:20;;;;;;;10.23;5.30;;;;;;;;;;5069674;28;20436;-81
2023/04/12 01:32:49;;;;;;;10.68;4.30;;;;;;;;;;5070501;28;20464;-81
2023/04/12 01:35:17;;;;;;;9.90;4.00;;;;;;;;;;5072834;28;20477;-81
2023/04/12 01:37:44;;;;;;;6.30;3.65;;;;;;;;;;5065916;28;20420;-81
2023/04/12 01:40:12;;;;;;;9.52;3.83;;;;;;;;;;5069091;28;20423;-81
2023/04/12 01:42:39;;;;;;;8.63;4.10;;;;;;;;;;5067462;28;20481;-81
2023/04/12 01:45:08;;;;;;;8.25;3.95;;;;;;;;;;5071205;28;20408;-81
2023/04/12 01:47:35;;;;;;;7.65;3.00;;;;;;;;;;5071623;28;20461;-81
2023/04/12 01:50:09;;;;;;;5.72;3.70;;;;;;;;;;5071679;28;20432;-81
2023/04/12 01:52:36;;;;;;;8.10;4.20;;;;;;;;;;5070407;28;20499;-80
2023/04/12 01:55:04;;;;;;;7.72;3.70;;;;;;;;;;5071797;28;20419;-80
2023/04/12 01:57:31;;;;;;;9.35;4.13;;;;;;;;;;5070007;28;20429;-81
2023/04/12 01:59:58;;;;;;;7.05;4.40;;;;;;;;;;5070782;28;20441;-81
2023/04/12 02:02:26;;;;;;;10.60;4.30;;;;;;;;;;5068362;28;20778;-81
2023/04/12 02:04:53;;;;;;;10.82;4.63;;;;;;;;;;5071429;28;20423;-81
2023/04/12 02:07:19;;;;;;;12.43;5.17;;;;;;;;;;5066971;28;20861;-81
2023/04/12 02:09:46;;;;;;;8.38;5.10;;;;;;;;;;5065755;28;20433;-81
2023/04/12 02:12:12;;;;;;;13.40;5.80;;;;;;;;;;5065587;28;20425;-81
2023/04/12 02:14:39;;;;;;;11.38;5.40;;;;;;;;;;5064772;28;20435;-80
2023/04/12 02:17:06;;;;;;;9.30;5.37;;;;;;;;;;5067096;28;20450;-81
2023/04/12 02:19:34;;;;;;;11.50;5.50;;;;;;;;;;5061878;28;20481;-81
2023/04/12 02:22:01;;;;;;;13.93;6.50;;;;;;;;;;5069058;28;20521;-81
2023/04/12 02:24:27;;;;;;;15.50;5.30;;;;;;;;;;5068623;28;20492;-81
2023/04/12 02:26:53;;;;;;;10.20;4.90;;;;;;;;;;5064375;28;20425;-81
2023/04/12 02:29:20;;;;;;;9.13;4.45;;;;;;;;;;5066657;28;20431;-80
2023/04/12 02:31:47;;;;;;;9.85;4.78;;;;;;;;;;5063742;28;20465;-80
2023/04/12 02:34:16;;;;;;;10.43;4.75;;;;;;;;;;5063680;28;20826;-81
2023/04/12 02:36:47;;;;;;;7.57;4.93;;;;;;;;;;5067546;28;20427;-81
2023/04/12 02:39:17;;;;;;;8.97;4.30;;;;;;;;;;5062959;28;20812;-81
2023/04/12 02:41:43;;;;;;;8.93;4.28;;;;;;;;;;5064116;28;20495;-81
2023/04/12 02:44:10;;;;;;;7.45;4.03;;;;;;;;;;5062948;28;20438;-81
2023/04/12 02:46:36;;;;;;;10.00;4.13;;;;;;;;;;5065686;28;20829;-81
2023/04/12 02:49:03;;;;;;;7.83;3.70;;;;;;;;;;5073216;28;20424;-80
2023/04/12 02:51:30;;;;;;;8.20;4.20;;;;;;;;;;5069723;28;20477;-81
2023/04/12 02:53:58;;;;;;;9.68;3.75;;;;;;;;;;5066933;28;20833;-81
2023/04/12 02:56:24;;;;;;;8.85;4.03;;;;;;;;;;5069797;28;20423;-81
2023/04/12 02:58:50;;;;;;;6.07;3.40;;;;;;;;;;5065092;28;20467;-81
2023/04/12 03:01:16;;;;;;;8.60;4.35;;;;;;;;;;5064333;28;20424;-81
2023/04/12 03:03:43;;;;;;;8.05;3.80;;;;;;;;;;5066333;28;20430;-81
2023/04/12 03:06:09;;;;;;;9.10;4.72;;;;;;;;;;5066590;28;20431;-81
2023/04/12 03:08:36;;;;;;;9.18;4.75;;;;;;;;;;5060390;28;20789;-79
2023/04/12 03:11:04;;;;;;;7.47;4.50;;;;;;;;;;5066459;28;20933;-81
2023/04/12 03:13:31;;;;;;;10.85;4.95;;;;;;;;;;5064343;28;21041;-81
2023/04/12 03:15:58;;;;;;;8.30;5.05;;;;;;;;;;5068697;28;20931;-81
2023/04/12 03:18:25;;;;;;;7.65;4.60;;;;;;;;;;5065322;28;20427;-81
2023/04/12 03:20:52;;;;;;;11.32;4.70;;;;;;;;;;5070575;28;20419;-81
2023/04/12 03:23:19;;;;;;;10.18;4.80;;;;;;;;;;5068729;28;20439;-81
2023/04/12 03:25:45;;;;;;;11.23;5.03;;;;;;;;;;5064884;28;20433;-81
2023/04/12 03:28:13;;;;;;;7.70;4.80;;;;;;;;;;5062770;28;20948;-81
2023/04/12 03:30:39;;;;;;;12.20;5.18;;;;;;;;;;5070869;28;20431;-81
2023/04/12 03:33:06;;;;;;;11.63;5.15;;;;;;;;;;5071390;28;20419;-80
2023/04/12 03:35:32;;;;;;;9.80;5.17;;;;;;;;;;5072800;28;20490;-80
2023/04/12 03:37:58;;;;;;;9.10;5.03;;;;;;;;;;5070819;28;20423;-80
2023/04/12 03:40:25;;;;;;;9.57;5.20;;;;;;;;;;5072804;28;20793;-81
2023/04/12 03:42:51;;;;;;;7.25;4.93;;;;;;;;;;5070754;28;20442;-81
2023/04/12 03:45:19;;;;;;;8.40;4.53;;;;;;;;;;5071380;28;20407;-81
2023/04/12 03:47:46;;;;;;;8.95;5.60;;;;;;;;;;5071483;28;20795;-81
2023/04/12 03:50:12;;;;;;;10.52;5.25;;;;;;;;;;5074425;28;20438;-81
2023/04/12 03:52:39;;;;;;;10.63;5.85;;;;;;;;;;5067501;28;20795;-80
2023/04/12 03:55:06;;;;;;;10.67;5.60;;;;;;;;;;5075365;28;20418;-81
2023/04/12 03:57:32;;;;;;;11.80;6.10;;;;;;;;;;5069671;28;20512;-81
2023/04/12 03:59:59;;;;;;;12.20;5.82;;;;;;;;;;5069645;28;20424;-81
2023/04/12 04:02:28;;;;;;;14.10;6.40;;;;;;;;;;5070528;28;20513;-81
2023/04/12 04:04:54;;;;;;;13.55;6.60;;;;;;;;;;5067891;28;21045;-81
2023/04/12 04:07:21;;;;;;;10.93;5.40;;;;;;;;;;5066105;28;20923;-81
2023/04/12 04:09:48;;;;;;;12.65;5.60;;;;;;;;;;5067212;28;20480;-81
2023/04/12 04:12:15;;;;;;;8.80;4.50;;;;;;;;;;5067641;28;20423;-81
2023/04/12 04:14:41;;;;;;;8.50;4.50;;;;;;;;;;5064364;28;20832;-81
2023/04/12 04:17:08;;;;;;;8.45;4.40;;;;;;;;;;5067693;28;20950;-81
2023/04/12 04:19:35;;;;;;;6.93;4.10;;;;;;;;;;5069745;28;20928;-81
2023/04/12 04:22:03;;;;;;;7.07;4.72;;;;;;;;;;5071304;28;20431;-81
2023/04/12 04:24:30;;;;;;;10.90;4.73;;;;;;;;;;5071976;28;20431;-81
2023/04/12 04:26:57;;;;;;;7.00;4.70;;;;;;;;;;5060881;28;20433;-81
2023/04/12 04:29:24;;;;;;;10.93;5.30;;;;;;;;;;5067477;28;20516;-81
2023/04/12 04:31:51;;;;;;;7.68;4.47;;;;;;;;;;5061216;28;20807;-81
2023/04/12 04:34:18;;;;;;;9.85;4.40;;;;;;;;;;5072327;28;20424;-81
2023/04/12 04:36:46;;;;;;;13.35;6.00;;;;;;;;;;5066498;28;20458;-81
2023/04/12 04:39:13;;;;;;;8.65;4.90;;;;;;;;;;5071159;28;20481;-81
2023/04/12 04:41:40;;;;;;;9.57;4.50;;;;;;;;;;5071282;28;20424;-81
2023/04/12 04:44:09;;;;;;;9.32;4.95;;;;;;;;;;5067133;28;20479;-81
2023/04/12 04:46:35;;;;;;;6.05;5.25;;;;;;;;;;5069577;28;20510;-81
2023/04/12 04:49:04;;;;;;;9.27;4.55;;;;;;;;;;5069616;28;20469;-81
2023/04/12 04:51:30;;;;;;;10.70;5.10;;;;;;;;;;5067977;28;20434;-81
2023/04/12 04:53:58;;;;;;;9.63;4.80;;;;;;;;;;5065761;28;20420;-81
2023/04/12 04:56:25;;;;;;;9.02;5.00;;;;;;;;;;5068917;28;20492;-81
2023/04/12 04:58:52;;;;;;;9.32;4.85;;;;;;;;;;5071085;28;20446;-81
2023/04/12 05:01:18;;;;;;;11.18;4.85;;;;;;;;;;5071165;28;20424;-81
2023/04/12 05:03:45;;;;;;;9.50;4.53;;;;;;;;;;5066386;28;20419;-81
2023/04/12 05:06:11;;;;;;;11.57;4.93;;;;;;;;;;5071270;28;20423;-81
2023/04/12 05:08:38;;;;;;;11.50;5.32;;;;;;;;;;5064524;28;20436;-81
2023/04/12 05:11:06;;;;;;;13.02;5.28;;;;;;;;;;5070487;28;20429;-81
2023/04/12 05:13:32;;;;;;;11.18;5.55;;;;;;;;;;5070174;28;20423;-81
2023/04/12 05:15:59;;;;;;;12.75;5.90;;;;;;;;;;5069547;28;20465;-81
2023/04/12 05:18:25;;;;;;;16.23;5.93;;;;;;;;;;5068561;28;20421;-81
2023/04/12 05:20:52;;;;;;;14.85;6.40;;;;;;;;;;5070685;28;20458;-81
2023/04/12 05:23:18;;;;;;;13.88;5.55;;;;;;;;;;5067533;28;20947;-81
2023/04/12 05:25:46;;;;;;;14.00;5.57;;;;;;;;;;5070735;28;20432;-81
2023/04/12 05:28:16;;;;;;;10.10;5.70;;;;;;;;;;5063790;28;20434;-81
2023/04/12 05:30:42;;;;;;;13.43;5.30;;;;;;;;;;5065979;28;20421;-81
2023/04/12 05:33:10;;;;;;;18.27;5.82;;;;;;;;;;5062601;28;20448;-81
2023/04/12 05:35:40;;;;;;;10.98;4.63;;;;;;;;;;5068025;28;20443;-82
2023/04/12 05:38:06;;;;;;;9.10;4.50;;;;;;;;;;5072888;28;20418;-81
2023/04/12 05:40:35;;;;;;;9.25;4.57;;;;;;;;;;5070723;28;20417;-81
2023/04/12 05:43:02;;;;;;;10.20;4.90;;;;;;;;;;5070151;28;20415;-81
2023/04/12 05:45:30;;;;;;;11.68;5.22;;;;;;;;;;5074745;28;20515;-81
2023/04/12 05:47:56;;;;;;;10.70;4.63;;;;;;;;;;5072470;28;20921;-81
2023/04/12 05:50:23;;;;;;;10.00;4.18;;;;;;;;;;5069342;28;20454;-81
2023/04/12 05:52:50;;;;;;;7.22;4.30;;;;;;;;;;5071588;28;20419;-81
2023/04/12 05:55:17;;;;;;;9.15;4.20;;;;;;;;;;5054951;28;20428;-82
2023/04/12 05:57:44;;;;;;;7.30;4.20;;;;;;;;;;5071543;28;20423;-80
2023/04/12 06:00:15;;;;;;;7.82;3.95;;;;;;;;;;5072870;28;20903;-80
2023/04/12 06:02:43;;;;;;;10.32;4.18;;;;;;;;;;5068342;28;20435;-80
2023/04/12 06:05:10;;;;;;;7.72;4.10;;;;;;;;;;5069504;28;20807;-81
2023/04/12 06:07:38;;;;;;;10.68;4.68;;;;;;;;;;5067670;28;20828;-82
2023/04/12 06:10:05;;;;;;;7.00;3.93;;;;;;;;;;5071016;28;20482;-82
2023/04/12 06:12:32;;;;;;;9.57;4.93;;;;;;;;;;5072469;28;20500;-82
2023/04/12 06:15:02;;;;;;;7.82;3.80;;;;;;;;;;5072011;28;20414;-80
2023/04/12 06:17:28;;;;;;;5.55;3.25;;;;;;;;;;5070579;28;20411;-82
2023/04/12 06:19:56;;;;;;;9.32;4.57;;;;;;;;;;5070640;28;20415;-82
2023/04/12 06:22:22;;;;;;;9.02;4.63;;;;;;;;;;5066433;28;20795;-80
2023/04/12 06:24:49;;;;;;;10.45;4.28;;;;;;;;;;5071512;28;20450;-82
2023/04/12 06:27:15;;;;;;;9.85;5.00;;;;;;;;;;5067977;28;20413;-80
2023/04/12 06:29:42;;;;;;;12.30;5.63;;;;;;;;;;5071797;28;20423;-82
2023/04/12 06:32:09;;;;;;;10.63;5.80;;;;;;;;;;5071195;28;20427;-80
2023/04/12 06:34:35;;;;;;;11.85;5.80;;;;;;;;;;5055052;28;20494;-80
2023/04/12 06:37:03;;;;;;;11.98;6.80;;;;;;;;;;5069977;28;21034;-80
2023/04/12 06:39:29;;;;;;;14.82;6.97;;;;;;;;;;5067356;28;20914;-82
2023/04/12 06:41:56;;;;;;;12.23;7.00;;;;;;;;;;5065809;28;20425;-82
2023/04/12 06:44:25;;;;;;;17.13;7.22;;;;;;;;;;5063144;28;20479;-82
2023/04/12 06:46:51;;;;;;;10.63;6.05;;;;;;;;;;5068735;28;20415;-81
2023/04/12 06:49:18;;;;;;;10.93;6.25;;;;;;;;;;5070520;28;20415;-80
2023/04/12 06:51:44;;;;;;;11.95;5.90;;;;;;;;;;5072370;28;20549;-80
2023/04/12 06:54:12;;;;;;;13.38;6.60;;;;;;;;;;5072691;28;20415;-80
2023/04/12 06:56:39;;;;;;;8.38;5.50;;;;;;;;;;5073714;28;20407;-82
2023/04/12 06:59:06;;;;;;;7.97;4.80;;;;;;;;;;5068400;28;20427;-80
2023/04/12 07:01:32;;;;;;;12.15;5.90;;;;;;;;;;5069389;28;20427;-80
2023/04/12 07:03:59;;;;;;;10.38;5.18;;;;;;;;;;5065107;28;20423;-80
2023/04/12 07:06:25;;;;;;;10.05;4.90;;;;;;;;;;5063376;28;20951;-82
2023/04/12 07:08:52;;;;;;;9.85;4.90;;;;;;;;;;5070146;28;20762;-82
2023/04/12 07:11:21;;;;;;;11.10;4.65;;;;;;;;;;5070672;28;20458;-82
2023/04/12 07:13:47;;;;;;;7.18;4.35;;;;;;;;;;5069774;28;20463;-82
2023/04/12 07:16:13;;;;;;;7.60;4.10;;;;;;;;;;5070564;28;20893;-82
2023/04/12 07:18:40;;;;;;;12.20;4.30;;;;;;;;;;5066094;28;20428;-81
2023/04/12 07:21:07;;;;;;;12.73;4.22;;;;;;;;;;5070714;28;20418;-81
2023/04/12 07:23:34;;;;;;;8.95;3.80;;;;;;;;;;5071143;28;20404;-80
2023/04/12 07:26:01;;;;;;;9.43;4.20;;;;;;;;;;5068856;28;20432;-79
2023/04/12 07:28:29;;;;;;;7.18;3.50;;;;;;;;;;5070015;28;20429;-80
2023/04/12 07:30:56;;;;;;;6.03;3.95;;;;;;;;;;5071298;28;20427;-80
2023/04/12 07:33:22;;;;;;;7.68;3.22;;;;;;;;;;5068508;28;20419;-80
2023/04/12 07:35:49;;;;;;;6.63;2.90;;;;;;;;;;5071663;28;20801;-80
2023/04/12 07:38:17;;;;;;;8.60;4.07;;;;;;;;;;5071182;28;20865;-80
2023/04/12 07:40:43;;;;;;;6.15;3.30;;;;;;;;;;5067780;28;20435;-82
2023/04/12 07:43:10;;;;;;;5.18;3.30;;;;;;;;;;5070565;28;20411;-80
2023/04/12 07:45:38;;;;;;;9.80;3.50;;;;;;;;;;5071859;28;20439;-80
2023/04/12 07:48:05;;;;;;;7.95;3.10;;;;;;;;;;5071242;28;20416;-82
2023/04/12 07:50:31;;;;;;;8.48;3.40;;;;;;;;;;5070904;28;20419;-82
2023/04/12 07:53:17;;;;;;;6.55;3.13;;;;;;;;;;5071704;28;20867;-82
2023/04/12 07:55:43;;;;;;;7.80;3.00;;;;;;;;;;5070188;28;20808;-81
2023/04/12 07:58:10;;;;;;;7.78;3.55;;;;;;;;;;5070123;28;20419;-80
2023/04/12 08:00:38;;;;;;;6.93;3.35;;;;;;;;;;5075763;28;20416;-82
2023/04/12 08:03:04;;;;;;;5.95;3.42;;;;;;;;;;5072333;28;20426;-80
2023/04/12 08:05:31;;;;;;;7.57;3.40;;;;;;;;;;5072525;28;20418;-80
2023/04/12 08:07:57;;;;;;;6.60;3.60;;;;;;;;;;5070060;28;20487;-80
2023/04/12 08:10:23;;;;;;;5.63;3.40;;;;;;;;;;5071282;28;20423;-81
2023/04/12 08:12:50;;;;;;;7.95;3.90;;;;;;;;;;5070478;28;20925;-80
2023/04/12 08:15:16;;;;;;;5.78;3.50;;;;;;;;;;5070787;28;20426;-82
2023/04/12 08:17:45;;;;;;;5.18;3.00;;;;;;;;;;5069994;28;20413;-80
2023/04/12 08:20:12;;;;;;;5.07;3.50;;;;;;;;;;5071355;28;20512;-80
2023/04/12 08:22:38;;;;;;;5.85;3.55;;;;;;;;;;5072282;28;20413;-80
2023/04/12 08:25:05;;;;;;;7.23;3.40;;;;;;;;;;5071874;28;20857;-80
2023/04/12 08:27:32;;;;;;;7.45;3.67;;;;;;;;;;5076117;28;20415;-81
2023/04/12 08:29:58;;;;;;;10.85;3.70;;;;;;;;;;5074120;28;20702;-82
2023/04/12 08:32:26;;;;;;;7.50;3.72;;;;;;;;;;5077705;28;20427;-81
2023/04/12 08:34:54;;;;;;;8.25;3.50;;;;;;;;;;5076187;28;20415;-80
2023/04/12 08:37:21;;;;;;;6.83;3.80;;;;;;;;;;5078812;28;20416;-80
2023/04/12 08:39:47;;;;;;;9.43;3.50;;;;;;;;;;5075043;28;20416;-80
2023/04/12 08:42:14;;;;;;;7.40;3.67;;;;;;;;;;5076949;28;20434;-82
2023/04/12 08:44:41;;;;;;;6.93;3.85;;;;;;;;;;5077334;28;20804;-80
2023/04/12 08:47:09;;;;;;;6.65;3.88;;;;;;;;;;5077784;28;20414;-79
2023/04/12 08:49:36;;;;;;;5.40;3.72;;;;;;;;;;5073985;28;21002;-80
2023/04/12 08:52:05;;;;;;;8.35;4.50;;;;;;;;;;5075865;28;20423;-80
2023/04/12 08:54:33;;;;;;;6.72;4.30;;;;;;;;;;5072725;28;20412;-80
2023/04/12 08:57:01;;;;;;;9.32;3.53;;;;;;;;;;5076645;28;20428;-80
2023/04/12 08:59:28;;;;;;;8.68;4.00;;;;;;;;;;5073793;28;20447;-80
2023/04/12 09:01:55;;;;;;;9.80;3.70;;;;;;;;;;5078742;28;20418;-80
2023/04/12 09:04:21;;;;;;;8.80;4.07;;;;;;;;;;5078416;28;20411;-81
2023/04/12 09:06:48;;;;;;;6.30;3.40;;;;;;;;;;5076688;28;20407;-82
2023/04/12 09:09:16;;;;;;;9.60;4.30;;;;;;;;;;5074036;28;20483;-80
2023/04/12 09:11:42;;;;;;;7.05;4.10;;;;;;;;;;5077802;28;20428;-80
2023/04/12 09:14:20;;;;;;;5.88;3.72;;;;;;;;;;5073649;28;20920;-80
2023/04/12 09:16:46;;;;;;;6.77;3.90;;;;;;;;;;5075823;28;20911;-82
2023/04/12 09:19:13;;;;;;;7.22;3.90;;;;;;;;;;5073496;28;20417;-82
2023/04/12 09:21:52;;;;;;;9.40;4.50;;;;;;;;;;5078915;28;20408;-81
2023/04/12 09:24:23;;;;;;;6.47;4.50;;;;;;;;;;5075393;28;20420;-80
2023/04/12 09:26:49;;;;;;;6.03;4.00;;;;;;;;;;5074200;28;20493;-81
2023/04/12 09:29:23;;;;;;;5.60;3.70;;;;;;;;;;5080112;28;20416;-81
2023/04/12 09:31:55;;;;;;;6.55;4.30;;;;;;;;;;5075851;28;20472;-80
2023/04/12 09:34:21;;;;;;;7.57;4.60;;;;;;;;;;5079108;28;20426;-81
2023/04/12 09:36:48;;;;;;;6.55;4.00;;;;;;;;;;5079178;28;20431;-81
2023/04/12 09:39:14;;;;;;;8.23;4.35;;;;;;;;;;5078050;28;20499;-80
2023/04/12 09:41:42;;;;;;;7.53;5.10;;;;;;;;;;5079568;28;20462;-81
2023/04/12 09:44:09;;;;;;;7.65;4.50;;;;;;;;;;5082525;28;20421;-81
2023/04/12 09:46:36;;;;;;;8.85;4.97;;;;;;;;;;5080915;28;20419;-81
2023/04/12 09:49:04;;;;;;;9.27;5.35;;;;;;;;;;5081516;28;20412;-81
2023/04/12 09:51:31;;;;;;;6.45;5.20;;;;;;;;;;5075971;28;20425;-81
2023/04/12 09:53:59;;;;;;;9.07;5.70;;;;;;;;;;5081450;28;20432;-81
2023/04/12 09:56:28;;;;;;;6.63;4.73;;;;;;;;;;5083531;28;20450;-80
2023/04/12 09:59:00;;;;;;;5.72;5.18;;;;;;;;;;5083543;28;20438;-83
2023/04/12 10:01:26;;;;;;;8.50;5.17;;;;;;;;;;5084039;28;20415;-81
2023/04/12 10:03:53;;;;;;;8.32;5.90;;;;;;;;;;5081375;28;20435;-81
2023/04/12 10:06:21;;;;;;;7.00;5.00;;;;;;;;;;5080924;28;20484;-81
2023/04/12 10:08:49;;;;;;;10.07;4.68;;;;;;;;;;5073814;28;20408;-80
2023/04/12 10:11:15;;;;;;;7.10;5.68;;;;;;;;;;5072689;28;20481;-80
2023/04/12 10:13:42;;;;;;;5.82;5.22;;;;;;;;;;5070165;28;20412;-82
2023/04/12 10:16:11;;;;;;;5.60;5.00;;;;;;;;;;5069572;28;20422;-80
2023/04/12 10:18:42;;;;;;;6.17;4.80;;;;;;;;;;5067421;28;20411;-80
2023/04/12 10:21:08;;;;;;;6.85;5.22;;;;;;;;;;5069055;28;20447;-82
2023/04/12 10:23:35;;;;;;;6.78;4.68;;;;;;;;;;5071823;28;20446;-80
2023/04/12 10:26:04;;;;;;;9.48;5.40;;;;;;;;;;5069186;28;20438;-80
2023/04/12 10:28:30;;;;;;;6.75;5.22;;;;;;;;;;5070992;28;20400;-80
2023/04/12 10:30:57;;;;;;;6.03;4.70;;;;;;;;;;5068989;28;20421;-80
2023/04/12 10:33:27;;;;;;;6.70;5.37;;;;;;;;;;5071203;28;20976;-80
2023/04/12 10:36:01;;;;;;;6.93;4.80;;;;;;;;;;5073002;28;20512;-81
2023/04/12 10:38:31;;;;;;;8.10;4.72;;;;;;;;;;5069194;28;20845;-81
2023/04/12 10:41:10;;;;;;;7.75;5.18;;;;;;;;;;5069844;28;20432;-80
2023/04/12 10:43:36;;;;;;;6.55;4.72;;;;;;;;;;5071182;28;20411;-80
2023/04/12 10:46:05;;;;;;;5.88;4.60;;;;;;;;;;5070782;28;20429;-80
2023/04/12 10:48:34;;;;;;;7.10;4.80;;;;;;;;;;5071606;28;20410;-81
2023/04/12 10:51:24;;;;;;;9.20;4.80;;;;;;;;;;5070030;28;20422;-80
2023/04/12 10:53:51;;;;;;;7.68;4.93;;;;;;;;;;5065385;28;20453;-80
2023/04/12 10:56:32;;;;;;;7.37;5.10;;;;;;;;;;5067744;28;20511;-80
2023/04/12 10:58:59;;;;;;;5.03;4.55;;;;;;;;;;5069917;28;20408;-80
2023/04/12 11:01:26;;;;;;;6.38;4.40;;;;;;;;;;5072974;28;20415;-80
2023/04/12 11:04:08;;;;;;;7.40;4.35;;;;;;;;;;5066908;28;20423;-80
2023/04/12 11:06:42;;;;;;;4.82;4.32;;;;;;;;;;5070507;28;20412;-80
2023/04/12 11:09:16;;;;;;;4.90;4.40;;;;;;;;;;5068162;28;20425;-79
2023/04/12 11:11:43;;;;;;;5.38;4.88;;;;;;;;;;5068116;28;20444;-80
2023/04/12 11:14:10;;;;;;;8.80;4.85;;;;;;;;;;5070764;28;20412;-80
2023/04/12 11:16:51;;;;;;;5.30;4.80;;;;;;;;;;5070424;28;20427;-80
2023/04/12 11:19:19;;;;;;;5.20;4.70;;;;;;;;;;5080281;28;20443;-81
2023/04/12 11:21:46;;;;;;;9.70;4.90;;;;;;;;;;5073475;28;20413;-80
2023/04/12 11:24:13;;;;;;;5.20;3.80;;;;;;;;;;5070230;28;20428;-82
2023/04/12 11:26:40;;;;;;;5.40;4.43;;;;;;;;;;5068394;28;20427;-81
2023/04/12 11:29:07;;;;;;;6.50;4.20;;;;;;;;;;5071031;28;20909;-81
2023/04/12 11:31:33;;;;;;;5.95;4.20;;;;;;;;;;5066534;28;20501;-81
2023/04/12 11:34:00;;;;;;;7.05;5.43;;;;;;;;;;5067436;28;20432;-80
2023/04/12 11:36:28;;;;;;;6.00;5.40;;;;;;;;;;5072920;28;20411;-81
2023/04/12 11:38:55;;;;;;;6.53;4.50;;;;;;;;;;5071302;28;20958;-80
2023/04/12 11:41:23;;;;;;;5.40;4.10;;;;;;;;;;5068400;28;20419;-80
2023/04/12 11:43:49;;;;;;;8.07;5.18;;;;;;;;;;5069771;28;20489;-80
2023/04/12 11:46:17;;;;;;;6.15;4.80;;;;;;;;;;5071844;28;20417;-80
2023/04/12 11:48:45;;;;;;;5.35;4.85;;;;;;;;;;5068951;28;20411;-80
2023/04/12 11:51:23;;;;;;;7.47;4.93;;;;;;;;;;5073452;28;20414;-80
2023/04/12 11:53:54;;;;;;;5.72;4.40;;;;;;;;;;5074850;28;20417;-79
2023/04/12 11:56:20;;;;;;;7.32;4.60;;;;;;;;;;5074868;28;20982;-81
2023/04/12 11:58:47;;;;;;;7.63;4.20;;;;;;;;;;5072973;28;20415;-80
2023/04/12 12:01:14;;;;;;;8.45;5.20;;;;;;;;;;5071164;28;20419;-80
2023/04/12 12:03:41;;;;;;;6.82;4.70;;;;;;;;;;5070208;28;20487;-80
2023/04/12 12:06:07;;;;;;;6.50;4.40;;;;;;;;;;5070574;28;20415;-80
2023/04/12 12:08:34;;;;;;;6.28;4.78;;;;;;;;;;5075267;28;20411;-82
2023/04/12 12:11:02;;;;;;;5.68;4.50;;;;;;;;;;5077077;28;20407;-80
2023/04/12 12:13:43;;;;;;;4.78;4.28;;;;;;;;;;5075120;28;20404;-79
2023/04/12 12:16:10;;;;;;;5.45;4.90;;;;;;;;;;5076745;28;20912;-80
2023/04/12 12:18:39;;;;;;;9.73;5.20;;;;;;;;;;5076467;28;20414;-80
2023/04/12 12:21:08;;;;;;;6.27;4.90;;;;;;;;;;5075574;28;20422;-80
2023/04/12 12:23:34;;;;;;;6.00;4.60;;;;;;;;;;5074469;28;20415;-80
2023/04/12 12:26:04;;;;;;;6.32;4.80;;;;;;;;;;5070748;28;20481;-80
2023/04/12 12:28:30;;;;;;;4.80;4.40;;;;;;;;;;5077045;28;20415;-79
2023/04/12 12:30:57;;;;;;;7.47;4.77;;;;;;;;;;5076813;28;20464;-80
2023/04/12 12:33:23;;;;;;;5.40;4.90;;;;;;;;;;5072199;28;20389;-80
2023/04/12 12:35:55;;;;;;;6.70;4.88;;;;;;;;;;5079338;28;20416;-82
2023/04/12 12:38:21;;;;;;;5.80;4.60;;;;;;;;;;5077363;28;20423;-82
2023/04/12 12:40:48;;;;;;;4.60;4.20;;;;;;;;;;5074767;28;20432;-82
2023/04/12 12:43:19;;;;;;;5.50;5.00;;;;;;;;;;5078890;28;20411;-80
2023/04/12 12:45:46;;;;;;;8.50;5.50;;;;;;;;;;5076830;28;20441;-80
2023/04/12 12:48:13;;;;;;;6.95;5.20;;;;;;;;;;5077257;28;21235;-80
2023/04/12 12:50:41;;;;;;;5.37;4.63;;;;;;;;;;5075260;28;20419;-81
2023/04/12 12:53:09;;;;;;;4.40;4.00;;;;;;;;;;5078477;28;21132;-80
2023/04/12 12:55:36;;;;;;;4.40;4.00;;;;;;;;;;5072716;28;20622;-80
2023/04/12 12:58:02;;;;;;;5.35;4.38;;;;;;;;;;5080045;28;20423;-82
2023/04/12 13:00:30;;;;;;;5.53;4.70;;;;;;;;;;5081170;28;20411;-80
2023/04/12 13:02:57;;;;;;;4.77;4.27;;;;;;;;;;5076611;28;20405;-81
2023/04/12 13:05:23;;;;;;;5.23;4.40;;;;;;;;;;5079771;28;20450;-81
2023/04/12 13:07:50;;;;;;;7.00;4.20;;;;;;;;;;5080837;28;20413;-80
2023/04/12 13:10:16;;;;;;;5.05;4.07;;;;;;;;;;5077567;28;20437;-80
2023/04/12 13:12:42;;;;;;;4.53;4.20;;;;;;;;;;5078522;28;20520;-82
2023/04/12 13:15:10;;;;;;;5.25;4.40;;;;;;;;;;5081443;28;20806;-81
2023/04/12 13:17:38;;;;;;;4.68;4.10;;;;;;;;;;5082332;28;20906;-82
2023/04/12 13:20:05;;;;;;;4.70;4.20;;;;;;;;;;5080723;28;20427;-82
2023/04/12 13:22:32;;;;;;;4.78;4.00;;;;;;;;;;5081575;28;20413;-82
2023/04/12 13:25:00;;;;;;;4.63;4.10;;;;;;;;;;5082188;28;20435;-83
2023/04/12 13:27:27;;;;;;;4.40;4.10;;;;;;;;;;5082780;28;20502;-82
2023/04/12 13:29:53;;;;;;;5.32;4.70;;;;;;;;;;5080180;28;20439;-81
2023/04/12 13:32:20;;;;;;;4.70;4.35;;;;;;;;;;5073208;28;20427;-81
2023/04/12 13:34:48;;;;;;;4.70;4.30;;;;;;;;;;5068383;28;20473;-80
2023/04/12 13:37:14;;;;;;;5.75;4.70;;;;;;;;;;5070732;28;20439;-80
2023/04/12 13:39:41;;;;;;;6.50;5.65;;;;;;;;;;5067411;28;20419;-79
2023/04/12 13:42:08;;;;;;;6.82;4.90;;;;;;;;;;5072667;28;20415;-80
2023/04/12 13:44:35;;;;;;;5.40;4.80;;;;;;;;;;5070346;28;20426;-79
2023/04/12 13:47:02;;;;;;;6.17;5.57;;;;;;;;;;5067937;28;20428;-79
2023/04/12 13:49:28;;;;;;;5.78;5.22;;;;;;;;;;5067966;28;20824;-80
2023/04/12 13:51:56;;;;;;;6.03;5.20;;;;;;;;;;5071522;28;20461;-80
2023/04/12 13:54:23;;;;;;;6.40;4.60;;;;;;;;;;5070028;28;20420;-81
2023/04/12 13:56:49;;;;;;;4.90;4.40;;;;;;;;;;5070571;28;20418;-80
2023/04/12 13:59:16;;;;;;;4.50;4.20;;;;;;;;;;5070488;28;20443;-79
2023/04/12 14:01:42;;;;;;;5.72;5.13;;;;;;;;;;5066857;28;20431;-79
2023/04/12 14:04:09;;;;;;;5.30;4.80;;;;;;;;;;5065784;28;20751;-79
2023/04/12 14:06:36;;;;;;;5.40;4.90;;;;;;;;;;5065531;28;20407;-80
2023/04/12 14:09:05;;;;;;;4.57;4.15;;;;;;;;;;5070055;28;20446;-81
2023/04/12 14:11:45;;;;;;;6.93;5.20;;;;;;;;;;5069566;28;20512;-80
2023/04/12 14:14:11;;;;;;;5.28;4.78;;;;;;;;;;5069335;28;20416;-80
2023/04/12 14:16:38;;;;;;;4.95;4.55;;;;;;;;;;5067146;28;20419;-80
2023/04/12 14:19:04;;;;;;;3.63;3.33;;;;;;;;;;5069145;28;20797;-81
2023/04/12 14:21:30;;;;;;;4.10;3.70;;;;;;;;;;5067953;28;20407;-80
2023/04/12 14:23:57;;;;;;;4.13;3.83;;;;;;;;;;5071005;28;20447;-81
2023/04/12 14:26:25;;;;;;;5.60;4.30;;;;;;;;;;5068465;28;20411;-81
2023/04/12 14:28:51;;;;;;;5.30;4.50;;;;;;;;;;5069175;28;20924;-81
2023/04/12 14:31:20;;;;;;;4.75;4.35;;;;;;;;;;5071215;28;20412;-80
2023/04/12 14:33:47;;;;;;;5.30;4.80;;;;;;;;;;5069890;28;20415;-80
2023/04/12 14:36:13;;;;;;;4.68;4.28;;;;;;;;;;5066133;28;20431;-80
2023/04/12 14:38:40;;;;;;;5.63;4.13;;;;;;;;;;5064714;28;20492;-81
2023/04/12 14:41:07;;;;;;;6.10;4.50;;;;;;;;;;5066853;28;20417;-80